Bradley, West Virginia
Current Conditions -  °F | °C
As of 3:51 PM on Sunday 21 Dec 2014 (Local Time) from KBKW Reporting Station
Clear Clear  
Wind Chill: 40°   Ceiling: Unl
Heat Index: 44°   Visibility: 10mi
Dew Point: 26°   Wind: 7mph
Humidity: 49%   Direction: NA
Pressure: 30.14"   Gusts: NA
Location:  37.86°N, 81.2°W
Report Text: KBKW 212051Z AUTO VRB06KT 10SM CLR 07/M03 A3014 RMK AO2 SLP223 T00671033 55009
Loading
Personal Weather Stations






























Interactive Weather Map New forecast layout! Learn more

10-Day Weather Forecast

Advertisements
Track Severe Weather on mobile